PWSweather.com
Personal Weather Stations
Station Observations
KNCCHINA3
Red Tractor Trail, China Grove, NC 28023

Red Tractor TrailChina Grove, NC 28023

Lat: 35.59751, Lon: -80.60201

Elevation: 800

Station Type: Oregon Scientific WMR 968

http://www.joesweathergarage.com

High Low Average
Temperature 89.8°F32.1°C 42.0°F5.6°C 65.2°F18.4°C
Dew Point 52.3°F11.3°C -2.1°F-18.9°C 44.2°F6.8°C
Winds 6.6 mph 10.6 kmh Calm Calm 2.0 mph SSE3.2 kmh SSE
Wind Gusts 11.2 mph18.0 kmh -- 3.0 mph4.8 kmh
Humidity 95% 3% 55%
Pressure 30.27 in1025.1 mb 30.15 in1021.0 mb -
Precipitation 0.00 in0.0 mm - -
Hour Temp Dew Point Humidity Winds Wind Gusts Pressure Precip Precip Rate Daily Precip Total
12:04 AM 48.6°F9.2°C 41.4°F5.2°C 76% Calm Calm -- 30.21 in1023.0 mb 0.00 in0.0 mm 0.00 in0.0 mm 0.00 in0.0 mm
12:09 AM 48.5°F9.2°C 41.9°F5.5°C 78% Calm Calm -- 30.21 in1023.0 mb 0.00 in0.0 mm 0.00 in0.0 mm 0.00 in0.0 mm
12:14 AM 48.5°F9.2°C 43.2°F6.2°C 82% Calm Calm -- 30.21 in1023.0 mb 0.00 in0.0 mm 0.00 in0.0 mm 0.00 in0.0 mm
12:19 AM 48.3°F9.1°C 42.7°F5.9°C 81% 2.3 mph SE3.7 kmh SE 3.2 mph5.1 kmh 30.21 in1023.0 mb 0.00 in0.0 mm 0.00 in0.0 mm 0.00 in0.0 mm
12:24 AM 48.1°F8.9°C 42.2°F5.7°C 80% 2.3 mph SE3.7 kmh SE 3.2 mph5.1 kmh 30.21 in1023.0 mb 0.00 in0.0 mm 0.00 in0.0 mm 0.00 in0.0 mm
12:29 AM 48.1°F8.9°C 41.5°F5.3°C 78% 2.5 mph SE4.0 kmh SE 4.4 mph7.1 kmh 30.21 in1023.0 mb 0.00 in0.0 mm 0.00 in0.0 mm 0.00 in0.0 mm
12:34 AM 47.9°F8.8°C 41.3°F5.2°C 78% 2.3 mph SE3.7 kmh SE 4.4 mph7.1 kmh 30.21 in1023.0 mb 0.00 in0.0 mm 0.00 in0.0 mm 0.00 in0.0 mm
12:40 AM 47.9°F8.8°C 41.7°F5.4°C 79% Calm Calm 3.2 mph5.1 kmh 30.21 in1023.0 mb 0.00 in0.0 mm 0.00 in0.0 mm 0.00 in0.0 mm
12:45 AM 47.9°F8.8°C 41.7°F5.4°C 79% Calm Calm -- 30.21 in1023.0 mb 0.00 in0.0 mm 0.00 in0.0 mm 0.00 in0.0 mm
12:50 AM 48.1°F8.9°C 41.2°F5.1°C 77% Calm Calm -- 30.21 in1023.0 mb 0.00 in0.0 mm 0.00 in0.0 mm 0.00 in0.0 mm
12:55 AM 48.3°F9.1°C 42.0°F5.6°C 79% 2.8 mph SE4.5 kmh SE 3.2 mph5.1 kmh 30.21 in1023.0 mb 0.00 in0.0 mm 0.00 in0.0 mm 0.00 in0.0 mm
01:02 AM 48.3°F9.1°C 42.4°F5.8°C 80% 2.2 mph SE3.5 kmh SE 3.2 mph5.1 kmh 30.21 in1023.0 mb 0.00 in0.0 mm 0.00 in0.0 mm 0.00 in0.0 mm
01:07 AM 48.3°F9.1°C 42.0°F5.6°C 79% 2.2 mph SE3.5 kmh SE 3.2 mph5.1 kmh 30.21 in1023.0 mb 0.00 in0.0 mm 0.00 in0.0 mm 0.00 in0.0 mm
01:12 AM 48.5°F9.2°C 42.2°F5.7°C 79% 2.2 mph SE3.5 kmh SE 3.2 mph5.1 kmh 30.21 in1023.0 mb 0.00 in0.0 mm 0.00 in0.0 mm 0.00 in0.0 mm
01:17 AM 48.5°F9.2°C 42.2°F5.7°C 79% Calm Calm 3.2 mph5.1 kmh 30.21 in1023.0 mb 0.00 in0.0 mm 0.00 in0.0 mm 0.00 in0.0 mm
01:25 AM 48.6°F9.2°C 41.7°F5.4°C 77% Calm Calm 2.2 mph3.5 kmh 30.18 in1022.0 mb 0.00 in0.0 mm 0.00 in0.0 mm 0.00 in0.0 mm
01:30 AM 49.0°F9.4°C 41.7°F5.4°C 76% Calm Calm -- 30.18 in1022.0 mb 0.00 in0.0 mm 0.00 in0.0 mm 0.00 in0.0 mm
01:35 AM 48.8°F9.3°C 41.5°F5.3°C 76% Calm Calm -- 30.18 in1022.0 mb 0.00 in0.0 mm 0.00 in0.0 mm 0.00 in0.0 mm
01:40 AM 49.0°F9.4°C 41.7°F5.4°C 76% Calm Calm -- 30.18 in1022.0 mb 0.00 in0.0 mm 0.00 in0.0 mm 0.00 in0.0 mm
01:45 AM 49.2°F9.6°C 41.6°F5.3°C 75% Calm Calm -- 30.18 in1022.0 mb 0.00 in0.0 mm 0.00 in0.0 mm 0.00 in0.0 mm
01:50 AM 49.4°F9.7°C 41.5°F5.3°C 74% Calm Calm -- 30.18 in1022.0 mb 0.00 in0.0 mm 0.00 in0.0 mm 0.00 in0.0 mm
01:55 AM 49.5°F9.7°C 41.5°F5.3°C 74% 2.4 mph SE3.9 kmh SE 2.6 mph4.2 kmh 30.18 in1022.0 mb 0.00 in0.0 mm 0.00 in0.0 mm 0.00 in0.0 mm
02:00 AM 49.7°F9.8°C 41.7°F5.4°C 74% Calm Calm 2.6 mph4.2 kmh 30.18 in1022.0 mb 0.00 in0.0 mm 0.00 in0.0 mm 0.00 in0.0 mm
02:05 AM 49.5°F9.7°C 40.9°F4.9°C 72% Calm Calm -- 30.18 in1022.0 mb 0.00 in0.0 mm 0.00 in0.0 mm 0.00 in0.0 mm
02:10 AM 49.5°F9.7°C 40.9°F4.9°C 72% Calm Calm -- 30.18 in1022.0 mb 0.00 in0.0 mm 0.00 in0.0 mm 0.00 in0.0 mm
02:16 AM 49.7°F9.8°C 41.0°F5.0°C 72% Calm Calm -- 30.18 in1022.0 mb 0.00 in0.0 mm 0.00 in0.0 mm 0.00 in0.0 mm
02:21 AM 49.5°F9.7°C 40.9°F4.9°C 72% Calm Calm -- 30.15 in1021.0 mb 0.00 in0.0 mm 0.00 in0.0 mm 0.00 in0.0 mm
02:26 AM 49.2°F9.6°C 41.3°F5.2°C 74% Calm Calm -- 30.15 in1021.0 mb 0.00 in0.0 mm 0.00 in0.0 mm 0.00 in0.0 mm
02:31 AM 48.8°F9.3°C 41.2°F5.1°C 75% Calm Calm -- 30.15 in1021.0 mb 0.00 in0.0 mm 0.00 in0.0 mm 0.00 in0.0 mm
02:36 AM 48.6°F9.2°C 41.4°F5.2°C 76% 2.8 mph SE4.5 kmh SE 3.2 mph5.1 kmh 30.15 in1021.0 mb 0.00 in0.0 mm 0.00 in0.0 mm 0.00 in0.0 mm
02:41 AM 48.5°F9.2°C 42.6°F5.9°C 80% Calm Calm 3.2 mph5.1 kmh 30.15 in1021.0 mb 0.00 in0.0 mm 0.00 in0.0 mm 0.00 in0.0 mm
02:46 AM 48.1°F8.9°C 41.9°F5.5°C 79% Calm Calm 2.6 mph4.2 kmh 30.15 in1021.0 mb 0.00 in0.0 mm 0.00 in0.0 mm 0.00 in0.0 mm
02:51 AM 48.1°F8.9°C 42.2°F5.7°C 80% Calm Calm -- 30.15 in1021.0 mb 0.00 in0.0 mm 0.00 in0.0 mm 0.00 in0.0 mm
02:56 AM 47.7°F8.7°C 41.8°F5.4°C 80% Calm Calm -- 30.15 in1021.0 mb 0.00 in0.0 mm 0.00 in0.0 mm 0.00 in0.0 mm
03:01 AM 47.7°F8.7°C 41.5°F5.3°C 79% Calm Calm -- 30.15 in1021.0 mb 0.00 in0.0 mm 0.00 in0.0 mm 0.00 in0.0 mm
03:06 AM 47.7°F8.7°C 41.1°F5.1°C 78% Calm Calm -- 30.15 in1021.0 mb 0.00 in0.0 mm 0.00 in0.0 mm 0.00 in0.0 mm
03:11 AM 47.7°F8.7°C 41.5°F5.3°C 79% Calm Calm -- 30.15 in1021.0 mb 0.00 in0.0 mm 0.00 in0.0 mm 0.00 in0.0 mm
03:16 AM 47.6°F8.7°C 41.7°F5.4°C 80% Calm Calm -- 30.15 in1021.0 mb 0.00 in0.0 mm 0.00 in0.0 mm 0.00 in0.0 mm
03:22 AM 47.4°F8.6°C 41.8°F5.4°C 81% Calm Calm -- 30.15 in1021.0 mb 0.00 in0.0 mm 0.00 in0.0 mm 0.00 in0.0 mm
03:26 AM 47.2°F8.4°C 41.9°F5.5°C 82% Calm Calm -- 30.15 in1021.0 mb 0.00 in0.0 mm 0.00 in0.0 mm 0.00 in0.0 mm
03:32 AM 47.0°F8.3°C 41.7°F5.4°C 82% Calm Calm -- 30.15 in1021.0 mb 0.00 in0.0 mm 0.00 in0.0 mm 0.00 in0.0 mm
03:37 AM 46.7°F8.2°C 42.0°F5.6°C 84% 2.6 mph SE4.2 kmh SE 2.6 mph4.2 kmh 30.15 in1021.0 mb 0.00 in0.0 mm 0.00 in0.0 mm 0.00 in0.0 mm
03:42 AM 46.7°F8.2°C 42.3°F5.7°C 85% Calm Calm 2.6 mph4.2 kmh 30.15 in1021.0 mb 0.00 in0.0 mm 0.00 in0.0 mm 0.00 in0.0 mm
03:47 AM 46.5°F8.1°C 42.1°F5.6°C 85% Calm Calm 2.6 mph4.2 kmh 30.15 in1021.0 mb 0.00 in0.0 mm 0.00 in0.0 mm 0.00 in0.0 mm
03:52 AM 46.5°F8.1°C 42.7°F5.9°C 87% Calm Calm -- 30.15 in1021.0 mb 0.00 in0.0 mm 0.00 in0.0 mm 0.00 in0.0 mm
03:57 AM 46.3°F7.9°C 42.5°F5.8°C 87% 2.0 mph SE3.2 kmh SE 2.6 mph4.2 kmh 30.15 in1021.0 mb 0.00 in0.0 mm 0.00 in0.0 mm 0.00 in0.0 mm
04:02 AM 46.1°F7.8°C 42.3°F5.7°C 87% Calm Calm 2.6 mph4.2 kmh 30.15 in1021.0 mb 0.00 in0.0 mm 0.00 in0.0 mm 0.00 in0.0 mm
04:07 AM 46.1°F7.8°C 42.9°F6.1°C 89% Calm Calm 2.6 mph4.2 kmh 30.15 in1021.0 mb 0.00 in0.0 mm 0.00 in0.0 mm 0.00 in0.0 mm
04:12 AM 45.9°F7.7°C 42.7°F5.9°C 89% Calm Calm -- 30.15 in1021.0 mb 0.00 in0.0 mm 0.00 in0.0 mm 0.00 in0.0 mm
04:17 AM 45.9°F7.7°C 42.7°F5.9°C 89% Calm Calm -- 30.15 in1021.0 mb 0.00 in0.0 mm 0.00 in0.0 mm 0.00 in0.0 mm
04:22 AM 45.8°F7.7°C 42.3°F5.7°C 88% Calm Calm -- 30.15 in1021.0 mb 0.00 in0.0 mm 0.00 in0.0 mm 0.00 in0.0 mm
04:27 AM 45.8°F7.7°C 42.3°F5.7°C 88% Calm Calm -- 30.15 in1021.0 mb 0.00 in0.0 mm 0.00 in0.0 mm 0.00 in0.0 mm
04:32 AM 45.6°F7.6°C 42.4°F5.8°C 89% Calm Calm -- 30.15 in1021.0 mb 0.00 in0.0 mm 0.00 in0.0 mm 0.00 in0.0 mm
04:37 AM 45.2°F7.3°C 42.0°F5.6°C 89% Calm Calm -- 30.18 in1022.0 mb 0.00 in0.0 mm 0.00 in0.0 mm 0.00 in0.0 mm
04:42 AM 45.0°F7.2°C 42.1°F5.6°C 90% Calm Calm -- 30.18 in1022.0 mb 0.00 in0.0 mm 0.00 in0.0 mm 0.00 in0.0 mm
04:47 AM 44.7°F7.1°C 41.8°F5.4°C 90% Calm Calm -- 30.18 in1022.0 mb 0.00 in0.0 mm 0.00 in0.0 mm 0.00 in0.0 mm
04:52 AM 44.7°F7.1°C 41.3°F5.2°C 88% Calm Calm -- 30.18 in1022.0 mb 0.00 in0.0 mm 0.00 in0.0 mm 0.00 in0.0 mm
04:57 AM 44.5°F6.9°C 41.6°F5.3°C 90% Calm Calm -- 30.18 in1022.0 mb 0.00 in0.0 mm 0.00 in0.0 mm 0.00 in0.0 mm
05:02 AM 44.3°F6.8°C 41.7°F5.4°C 91% Calm Calm -- 30.18 in1022.0 mb 0.00 in0.0 mm 0.00 in0.0 mm 0.00 in0.0 mm
05:07 AM 44.0°F6.7°C 41.4°F5.2°C 91% Calm Calm -- 30.18 in1022.0 mb 0.00 in0.0 mm 0.00 in0.0 mm 0.00 in0.0 mm
05:12 AM 44.0°F6.7°C 41.4°F5.2°C 91% Calm Calm -- 30.18 in1022.0 mb 0.00 in0.0 mm 0.00 in0.0 mm 0.00 in0.0 mm
05:18 AM 43.6°F6.4°C 41.0°F5.0°C 91% Calm Calm -- 30.18 in1022.0 mb 0.00 in0.0 mm 0.00 in0.0 mm 0.00 in0.0 mm
05:23 AM 43.6°F6.4°C 41.0°F5.0°C 91% Calm Calm -- 30.21 in1023.0 mb 0.00 in0.0 mm 0.00 in0.0 mm 0.00 in0.0 mm
05:28 AM 43.6°F6.4°C 41.3°F5.2°C 92% Calm Calm -- 30.21 in1023.0 mb 0.00 in0.0 mm 0.00 in0.0 mm 0.00 in0.0 mm
05:33 AM 43.6°F6.4°C 41.6°F5.3°C 93% Calm Calm -- 30.21 in1023.0 mb 0.00 in0.0 mm 0.00 in0.0 mm 0.00 in0.0 mm
05:38 AM 43.4°F6.3°C 41.1°F5.1°C 92% Calm Calm -- 30.21 in1023.0 mb 0.00 in0.0 mm 0.00 in0.0 mm 0.00 in0.0 mm
05:43 AM 43.2°F6.2°C 40.9°F4.9°C 92% Calm Calm -- 30.21 in1023.0 mb 0.00 in0.0 mm 0.00 in0.0 mm 0.00 in0.0 mm
05:49 AM 43.1°F6.2°C 40.8°F4.9°C 92% Calm Calm -- 30.21 in1023.0 mb 0.00 in0.0 mm 0.00 in0.0 mm 0.00 in0.0 mm
05:54 AM 42.9°F6.1°C 40.6°F4.8°C 92% Calm Calm -- 30.21 in1023.0 mb 0.00 in0.0 mm 0.00 in0.0 mm 0.00 in0.0 mm
05:59 AM 43.1°F6.2°C 40.8°F4.9°C 92% Calm Calm -- 30.21 in1023.0 mb 0.00 in0.0 mm 0.00 in0.0 mm 0.00 in0.0 mm
06:04 AM 42.9°F6.1°C 40.9°F4.9°C 93% Calm Calm -- 30.21 in1023.0 mb 0.00 in0.0 mm 0.00 in0.0 mm 0.00 in0.0 mm
06:10 AM 42.7°F5.9°C 40.7°F4.8°C 93% Calm Calm -- 30.21 in1023.0 mb 0.00 in0.0 mm 0.00 in0.0 mm 0.00 in0.0 mm
06:15 AM 42.7°F5.9°C 40.7°F4.8°C 93% Calm Calm -- 30.21 in1023.0 mb 0.00 in0.0 mm 0.00 in0.0 mm 0.00 in0.0 mm
06:20 AM 42.5°F5.8°C 40.8°F4.9°C 94% Calm Calm -- 30.21 in1023.0 mb 0.00 in0.0 mm 0.00 in0.0 mm 0.00 in0.0 mm
06:25 AM 42.3°F5.7°C 40.6°F4.8°C 94% Calm Calm -- 30.21 in1023.0 mb 0.00 in0.0 mm 0.00 in0.0 mm 0.00 in0.0 mm
06:31 AM 42.5°F5.8°C 40.8°F4.9°C 94% Calm Calm -- 30.21 in1023.0 mb 0.00 in0.0 mm 0.00 in0.0 mm 0.00 in0.0 mm
06:36 AM 42.2°F5.7°C 40.5°F4.7°C 94% Calm Calm -- 30.21 in1023.0 mb 0.00 in0.0 mm 0.00 in0.0 mm 0.00 in0.0 mm
06:41 AM 42.2°F5.7°C 40.5°F4.7°C 94% Calm Calm -- 30.21 in1023.0 mb 0.00 in0.0 mm 0.00 in0.0 mm 0.00 in0.0 mm
06:46 AM 42.2°F5.7°C 40.5°F4.7°C 94% Calm Calm -- 30.21 in1023.0 mb 0.00 in0.0 mm 0.00 in0.0 mm 0.00 in0.0 mm
06:51 AM 42.0°F5.6°C 40.6°F4.8°C 95% Calm Calm -- 30.18 in1022.0 mb 0.00 in0.0 mm 0.00 in0.0 mm 0.00 in0.0 mm
06:56 AM 42.0°F5.6°C 40.6°F4.8°C 95% Calm Calm -- 30.18 in1022.0 mb 0.00 in0.0 mm 0.00 in0.0 mm 0.00 in0.0 mm
07:02 AM 42.3°F5.7°C 40.9°F4.9°C 95% Calm Calm -- 30.18 in1022.0 mb 0.00 in0.0 mm 0.00 in0.0 mm 0.00 in0.0 mm
07:07 AM 42.7°F5.9°C 41.3°F5.2°C 95% Calm Calm -- 30.18 in1022.0 mb 0.00 in0.0 mm 0.00 in0.0 mm 0.00 in0.0 mm
07:13 AM 43.2°F6.2°C 41.7°F5.4°C 95% Calm Calm -- 30.18 in1022.0 mb 0.00 in0.0 mm 0.00 in0.0 mm 0.00 in0.0 mm
07:18 AM 43.8°F6.6°C 42.3°F5.7°C 95% Calm Calm -- 30.18 in1022.0 mb 0.00 in0.0 mm 0.00 in0.0 mm 0.00 in0.0 mm
07:23 AM 44.3°F6.8°C 42.8°F6.0°C 95% Calm Calm -- 30.21 in1023.0 mb 0.00 in0.0 mm 0.00 in0.0 mm 0.00 in0.0 mm
07:28 AM 44.9°F7.2°C 43.2°F6.2°C 94% Calm Calm -- 30.21 in1023.0 mb 0.00 in0.0 mm 0.00 in0.0 mm 0.00 in0.0 mm
07:33 AM 45.2°F7.3°C 43.5°F6.4°C 94% Calm Calm -- 30.21 in1023.0 mb 0.00 in0.0 mm 0.00 in0.0 mm 0.00 in0.0 mm
07:38 AM 45.8°F7.7°C 44.3°F6.8°C 95% Calm Calm -- 30.21 in1023.0 mb 0.00 in0.0 mm 0.00 in0.0 mm 0.00 in0.0 mm
07:43 AM 46.3°F7.9°C 44.5°F6.9°C 94% Calm Calm -- 30.21 in1023.0 mb 0.00 in0.0 mm 0.00 in0.0 mm 0.00 in0.0 mm
07:48 AM 46.8°F8.2°C 45.0°F7.2°C 94% Calm Calm -- 30.21 in1023.0 mb 0.00 in0.0 mm 0.00 in0.0 mm 0.00 in0.0 mm
07:53 AM 47.2°F8.4°C 45.4°F7.4°C 94% Calm Calm -- 30.21 in1023.0 mb 0.00 in0.0 mm 0.00 in0.0 mm 0.00 in0.0 mm
07:58 AM 47.7°F8.7°C 45.6°F7.6°C 93% Calm Calm -- 30.21 in1023.0 mb 0.00 in0.0 mm 0.00 in0.0 mm 0.00 in0.0 mm
08:03 AM 48.1°F8.9°C 46.0°F7.8°C 93% Calm Calm -- 30.21 in1023.0 mb 0.00 in0.0 mm 0.00 in0.0 mm 0.00 in0.0 mm
08:08 AM 48.8°F9.3°C 46.4°F8.0°C 92% Calm Calm -- 30.24 in1024.0 mb 0.00 in0.0 mm 0.00 in0.0 mm 0.00 in0.0 mm
08:14 AM 49.7°F9.8°C 47.3°F8.5°C 92% Calm Calm -- 30.24 in1024.0 mb 0.00 in0.0 mm 0.00 in0.0 mm 0.00 in0.0 mm
08:19 AM 50.6°F10.3°C 48.2°F9.0°C 92% Calm Calm -- 30.24 in1024.0 mb 0.00 in0.0 mm 0.00 in0.0 mm 0.00 in0.0 mm
08:24 AM 51.9°F11.1°C 49.5°F9.7°C 92% Calm Calm -- 30.24 in1024.0 mb 0.00 in0.0 mm 0.00 in0.0 mm 0.00 in0.0 mm
08:29 AM 53.0°F11.7°C 50.6°F10.3°C 92% Calm Calm -- 30.24 in1024.0 mb 0.00 in0.0 mm 0.00 in0.0 mm 0.00 in0.0 mm
08:34 AM 54.0°F12.2°C 51.3°F10.7°C 91% Calm Calm -- 30.24 in1024.0 mb 0.00 in0.0 mm 0.00 in0.0 mm 0.00 in0.0 mm
08:39 AM 55.1°F12.8°C 51.8°F11.0°C 89% 2.5 mph SE4.0 kmh SE 3.2 mph5.1 kmh 30.24 in1024.0 mb 0.00 in0.0 mm 0.00 in0.0 mm 0.00 in0.0 mm
08:44 AM 56.2°F13.4°C 52.3°F11.3°C 87% 3.9 mph ENE6.3 kmh ENE 5.4 mph8.7 kmh 30.24 in1024.0 mb 0.00 in0.0 mm 0.00 in0.0 mm 0.00 in0.0 mm
08:49 AM 57.8°F14.3°C 52.3°F11.3°C 82% 4.4 mph N7.1 kmh N 5.8 mph9.3 kmh 30.24 in1024.0 mb 0.00 in0.0 mm 0.00 in0.0 mm 0.00 in0.0 mm
08:54 AM 58.7°F14.8°C 51.1°F10.6°C 76% 2.6 mph NNE4.2 kmh NNE 5.8 mph9.3 kmh 30.24 in1024.0 mb 0.00 in0.0 mm 0.00 in0.0 mm 0.00 in0.0 mm
08:59 AM 59.9°F15.5°C 51.0°F10.6°C 72% 4.7 mph NNE7.6 kmh NNE 5.8 mph9.3 kmh 30.24 in1024.0 mb 0.00 in0.0 mm 0.00 in0.0 mm 0.00 in0.0 mm
09:05 AM 60.8°F16.0°C 49.9°F9.9°C 67% 4.8 mph NNE7.7 kmh NNE 6.8 mph10.9 kmh 30.24 in1024.0 mb 0.00 in0.0 mm 0.00 in0.0 mm 0.00 in0.0 mm
09:10 AM 61.5°F16.4°C 49.3°F9.6°C 64% 2.5 mph NE4.0 kmh NE 6.8 mph10.9 kmh 30.24 in1024.0 mb 0.00 in0.0 mm 0.00 in0.0 mm 0.00 in0.0 mm
09:15 AM 62.2°F16.8°C 50.4°F10.2°C 65% 3.5 mph N5.6 kmh N 6.2 mph10.0 kmh 30.24 in1024.0 mb 0.00 in0.0 mm 0.00 in0.0 mm 0.00 in0.0 mm
09:20 AM 62.6°F17.0°C 49.1°F9.5°C 61% 4.2 mph 6.8 kmh 7.2 mph11.6 kmh 30.24 in1024.0 mb 0.00 in0.0 mm 0.00 in0.0 mm 0.00 in0.0 mm
09:25 AM 63.7°F17.6°C 49.7°F9.8°C 60% 2.6 mph NE4.2 kmh NE 7.2 mph11.6 kmh 30.24 in1024.0 mb 0.00 in0.0 mm 0.00 in0.0 mm 0.00 in0.0 mm
09:30 AM 64.4°F18.0°C 49.4°F9.7°C 58% 2.3 mph ENE3.7 kmh ENE 5.0 mph8.0 kmh 30.24 in1024.0 mb 0.00 in0.0 mm 0.00 in0.0 mm 0.00 in0.0 mm
09:36 AM 65.8°F18.8°C 50.2°F10.1°C 57% 3.6 mph NE5.8 kmh NE 6.2 mph10.0 kmh 30.24 in1024.0 mb 0.00 in0.0 mm 0.00 in0.0 mm 0.00 in0.0 mm
09:41 AM 66.4°F19.1°C 48.3°F9.1°C 52% 2.3 mph SE3.7 kmh SE 6.2 mph10.0 kmh 30.24 in1024.0 mb 0.00 in0.0 mm 0.00 in0.0 mm 0.00 in0.0 mm
09:49 AM 69.6°F20.9°C 50.1°F10.1°C 50% 3.6 mph N5.8 kmh N 7.6 mph12.2 kmh 30.24 in1024.0 mb 0.00 in0.0 mm 0.00 in0.0 mm 0.00 in0.0 mm
09:54 AM 70.5°F21.4°C 49.3°F9.6°C 47% 4.0 mph N6.4 kmh N 6.2 mph10.0 kmh 30.24 in1024.0 mb 0.00 in0.0 mm 0.00 in0.0 mm 0.00 in0.0 mm
10:00 AM 71.6°F22.0°C 50.3°F10.2°C 47% 3.2 mph SSE5.1 kmh SSE 6.2 mph10.0 kmh 30.24 in1024.0 mb 0.00 in0.0 mm 0.00 in0.0 mm 0.00 in0.0 mm
10:05 AM 73.2°F22.9°C 51.7°F10.9°C 47% 3.1 mph SSE5.0 kmh SSE 4.4 mph7.1 kmh 30.24 in1024.0 mb 0.00 in0.0 mm 0.00 in0.0 mm 0.00 in0.0 mm
10:11 AM 73.0°F22.8°C 49.1°F9.5°C 43% 3.8 mph WSW6.1 kmh WSW 5.4 mph8.7 kmh 30.24 in1024.0 mb 0.00 in0.0 mm 0.00 in0.0 mm 0.00 in0.0 mm
10:16 AM 73.0°F22.8°C 48.4°F9.1°C 42% 4.5 mph WSW7.2 kmh WSW 5.4 mph8.7 kmh 30.24 in1024.0 mb 0.00 in0.0 mm 0.00 in0.0 mm 0.00 in0.0 mm
10:21 AM 74.1°F23.4°C 49.4°F9.7°C 42% 3.0 mph E4.8 kmh E 6.2 mph10.0 kmh 30.24 in1024.0 mb 0.00 in0.0 mm 0.00 in0.0 mm 0.00 in0.0 mm
10:26 AM 76.1°F24.5°C 49.9°F9.9°C 40% 5.0 mph NNE8.0 kmh NNE 7.2 mph11.6 kmh 30.24 in1024.0 mb 0.00 in0.0 mm 0.00 in0.0 mm 0.00 in0.0 mm
10:31 AM 77.2°F25.1°C 49.4°F9.7°C 38% 5.5 mph NE8.9 kmh NE 6.8 mph10.9 kmh 30.24 in1024.0 mb 0.00 in0.0 mm 0.00 in0.0 mm 0.00 in0.0 mm
10:36 AM 77.0°F25.0°C 48.5°F9.2°C 37% 3.0 mph NW4.8 kmh NW 6.8 mph10.9 kmh 30.24 in1024.0 mb 0.00 in0.0 mm 0.00 in0.0 mm 0.00 in0.0 mm
10:42 AM 77.9°F25.5°C 49.3°F9.6°C 37% 5.3 mph NNE8.5 kmh NNE 6.8 mph10.9 kmh 30.24 in1024.0 mb 0.00 in0.0 mm 0.00 in0.0 mm 0.00 in0.0 mm
10:47 AM 78.1°F25.6°C 48.8°F9.3°C 36% 2.5 mph SSE4.0 kmh SSE 6.2 mph10.0 kmh 30.24 in1024.0 mb 0.00 in0.0 mm 0.00 in0.0 mm 0.00 in0.0 mm
10:52 AM 79.0°F26.1°C 48.8°F9.3°C 35% 5.5 mph N8.9 kmh N 8.6 mph13.8 kmh 30.27 in1025.1 mb 0.00 in0.0 mm 0.00 in0.0 mm 0.00 in0.0 mm
10:57 AM 79.7°F26.5°C 48.6°F9.2°C 34% 5.8 mph N9.3 kmh N 8.6 mph13.8 kmh 30.27 in1025.1 mb 0.00 in0.0 mm 0.00 in0.0 mm 0.00 in0.0 mm
11:02 AM 80.8°F27.1°C 49.6°F9.8°C 34% 4.0 mph NE6.4 kmh NE 8.6 mph13.8 kmh 30.27 in1025.1 mb 0.00 in0.0 mm 0.00 in0.0 mm 0.00 in0.0 mm
11:07 AM 76.8°F24.9°C 45.3°F7.4°C 33% 4.7 mph NW7.6 kmh NW 7.2 mph11.6 kmh 30.27 in1025.1 mb 0.00 in0.0 mm 0.00 in0.0 mm 0.00 in0.0 mm
11:12 AM 80.8°F27.1°C 49.6°F9.8°C 34% 3.8 mph SE6.1 kmh SE 6.8 mph10.9 kmh 30.27 in1025.1 mb 0.00 in0.0 mm 0.00 in0.0 mm 0.00 in0.0 mm
11:17 AM 80.4°F26.9°C 48.4°F9.1°C 33% 3.9 mph WSW6.3 kmh WSW 5.8 mph9.3 kmh 30.27 in1025.1 mb 0.00 in0.0 mm 0.00 in0.0 mm 0.00 in0.0 mm
11:22 AM 78.1°F25.6°C 45.6°F7.6°C 32% 4.6 mph WNW7.4 kmh WNW 5.8 mph9.3 kmh 30.27 in1025.1 mb 0.00 in0.0 mm 0.00 in0.0 mm 0.00 in0.0 mm
11:27 AM 81.8°F27.7°C 49.7°F9.8°C 33% 2.6 mph E4.2 kmh E 5.8 mph9.3 kmh 30.27 in1025.1 mb 0.00 in0.0 mm 0.00 in0.0 mm 0.00 in0.0 mm
11:32 AM 82.2°F27.9°C 49.2°F9.6°C 32% 4.4 mph SSW7.1 kmh SSW 5.8 mph9.3 kmh 30.27 in1025.1 mb 0.00 in0.0 mm 0.00 in0.0 mm 0.00 in0.0 mm
11:37 AM 84.5°F29.2°C 50.3°F10.2°C 31% 4.6 mph NE7.4 kmh NE 5.8 mph9.3 kmh 30.27 in1025.1 mb 0.00 in0.0 mm 0.00 in0.0 mm 0.00 in0.0 mm
11:42 AM 84.4°F29.1°C 50.2°F10.1°C 31% 3.9 mph SE6.3 kmh SE 5.8 mph9.3 kmh 30.27 in1025.1 mb 0.00 in0.0 mm 0.00 in0.0 mm 0.00 in0.0 mm
11:47 AM 86.3°F30.2°C 51.0°F10.6°C 30% 5.0 mph NE8.0 kmh NE 6.2 mph10.0 kmh 30.27 in1025.1 mb 0.00 in0.0 mm 0.00 in0.0 mm 0.00 in0.0 mm
11:52 AM 87.1°F30.6°C 50.8°F10.4°C 29% 4.9 mph SE7.9 kmh SE 7.2 mph11.6 kmh 30.27 in1025.1 mb 0.00 in0.0 mm 0.00 in0.0 mm 0.00 in0.0 mm
11:57 AM 87.2°F30.7°C 50.9°F10.5°C 29% 5.2 mph SE8.4 kmh SE 7.2 mph11.6 kmh 30.27 in1025.1 mb 0.00 in0.0 mm 0.00 in0.0 mm 0.00 in0.0 mm
12:03 PM 87.2°F30.7°C 49.9°F9.9°C 28% 3.5 mph E5.6 kmh E 6.2 mph10.0 kmh 30.27 in1025.1 mb 0.00 in0.0 mm 0.00 in0.0 mm 0.00 in0.0 mm
12:08 PM 87.4°F30.8°C 51.0°F10.6°C 29% 3.4 mph S5.5 kmh S 5.4 mph8.7 kmh 30.24 in1024.0 mb 0.00 in0.0 mm 0.00 in0.0 mm 0.00 in0.0 mm
12:16 PM 87.1°F30.6°C 47.9°F8.8°C 26% 4.6 mph N7.4 kmh N 6.8 mph10.9 kmh 30.24 in1024.0 mb 0.00 in0.0 mm 0.00 in0.0 mm 0.00 in0.0 mm
12:21 PM 85.1°F29.5°C 49.1°F9.5°C 29% 4.1 mph W6.6 kmh W 6.8 mph10.9 kmh 30.24 in1024.0 mb 0.00 in0.0 mm 0.00 in0.0 mm 0.00 in0.0 mm
12:26 PM 85.3°F29.6°C 47.3°F8.5°C 27% 2.9 mph N4.7 kmh N 6.2 mph10.0 kmh 30.24 in1024.0 mb 0.00 in0.0 mm 0.00 in0.0 mm 0.00 in0.0 mm
12:31 PM 84.4°F29.1°C 45.6°F7.6°C 26% 4.5 mph WSW7.2 kmh WSW 5.4 mph8.7 kmh 30.24 in1024.0 mb 0.00 in0.0 mm 0.00 in0.0 mm 0.00 in0.0 mm
12:36 PM 85.4°F29.7°C 47.4°F8.6°C 27% 3.0 mph NNE4.8 kmh NNE 5.4 mph8.7 kmh 30.24 in1024.0 mb 0.00 in0.0 mm 0.00 in0.0 mm 0.00 in0.0 mm
12:41 PM 86.7°F30.4°C 49.5°F9.7°C 28% 2.9 mph SSW4.7 kmh SSW 5.0 mph8.0 kmh 30.24 in1024.0 mb 0.00 in0.0 mm 0.00 in0.0 mm 0.00 in0.0 mm
12:46 PM 88.0°F31.1°C 50.6°F10.3°C 28% 4.6 mph SE7.4 kmh SE 6.8 mph10.9 kmh 30.24 in1024.0 mb 0.00 in0.0 mm 0.00 in0.0 mm 0.00 in0.0 mm
12:51 PM 87.1°F30.6°C 47.9°F8.8°C 26% 4.3 mph SE6.9 kmh SE 6.8 mph10.9 kmh 30.24 in1024.0 mb 0.00 in0.0 mm 0.00 in0.0 mm 0.00 in0.0 mm
12:56 PM 88.3°F31.3°C 47.9°F8.8°C 25% 3.9 mph SE6.3 kmh SE 6.8 mph10.9 kmh 30.24 in1024.0 mb 0.00 in0.0 mm 0.00 in0.0 mm 0.00 in0.0 mm
01:01 PM 88.0°F31.1°C 48.6°F9.2°C 26% 2.5 mph SE4.0 kmh SE 6.8 mph10.9 kmh 30.24 in1024.0 mb 0.00 in0.0 mm 0.00 in0.0 mm 0.00 in0.0 mm
01:07 PM 85.8°F29.9°C 46.8°F8.2°C 26% 4.7 mph WNW7.6 kmh WNW 6.2 mph10.0 kmh 30.24 in1024.0 mb 0.00 in0.0 mm 0.00 in0.0 mm 0.00 in0.0 mm
01:12 PM 87.4°F30.8°C 46.0°F7.8°C 24% 3.5 mph NNW5.6 kmh NNW 6.2 mph10.0 kmh 30.24 in1024.0 mb 0.00 in0.0 mm 0.00 in0.0 mm 0.00 in0.0 mm
01:17 PM 87.8°F31.0°C 48.5°F9.2°C 26% 4.5 mph WSW7.2 kmh WSW 5.8 mph9.3 kmh 30.24 in1024.0 mb 0.00 in0.0 mm 0.00 in0.0 mm 0.00 in0.0 mm
01:22 PM 88.0°F31.1°C 45.4°F7.4°C 23% 4.5 mph SSE7.2 kmh SSE 6.8 mph10.9 kmh 30.24 in1024.0 mb 0.00 in0.0 mm 0.00 in0.0 mm 0.00 in0.0 mm
01:27 PM 86.5°F30.3°C 45.3°F7.4°C 24% 4.3 mph W6.9 kmh W 6.8 mph10.9 kmh 30.24 in1024.0 mb 0.00 in0.0 mm 0.00 in0.0 mm 0.00 in0.0 mm
01:32 PM 86.7°F30.4°C 44.3°F6.8°C 23% 4.0 mph WNW6.4 kmh WNW 8.0 mph12.9 kmh 30.24 in1024.0 mb 0.00 in0.0 mm 0.00 in0.0 mm 0.00 in0.0 mm
01:37 PM 87.8°F31.0°C 47.4°F8.6°C 25% 5.0 mph S8.0 kmh S 8.0 mph12.9 kmh 30.24 in1024.0 mb 0.00 in0.0 mm 0.00 in0.0 mm 0.00 in0.0 mm
01:42 PM 88.1°F31.2°C 45.5°F7.5°C 23% 5.1 mph SW8.2 kmh SW 8.0 mph12.9 kmh 30.24 in1024.0 mb 0.00 in0.0 mm 0.00 in0.0 mm 0.00 in0.0 mm
01:47 PM 88.7°F31.5°C 48.2°F9.0°C 25% 3.2 mph NW5.1 kmh NW 8.0 mph12.9 kmh 30.24 in1024.0 mb 0.00 in0.0 mm 0.00 in0.0 mm 0.00 in0.0 mm
01:52 PM 89.8°F32.1°C 46.9°F8.3°C 23% 3.3 mph SSE5.3 kmh SSE 5.8 mph9.3 kmh 30.24 in1024.0 mb 0.00 in0.0 mm 0.00 in0.0 mm 0.00 in0.0 mm
01:58 PM 89.0°F31.7°C 43.9°F6.6°C 21% 5.1 mph S8.2 kmh S 11.2 mph18.0 kmh 30.24 in1024.0 mb 0.00 in0.0 mm 0.00 in0.0 mm 0.00 in0.0 mm
02:03 PM 88.7°F31.5°C 43.7°F6.5°C 21% 4.3 mph WSW6.9 kmh WSW 11.2 mph18.0 kmh 30.24 in1024.0 mb 0.00 in0.0 mm 0.00 in0.0 mm 0.00 in0.0 mm
02:08 PM 89.0°F31.7°C 41.3°F5.2°C 19% 4.7 mph SSE7.6 kmh SSE 7.6 mph12.2 kmh 30.24 in1024.0 mb 0.00 in0.0 mm 0.00 in0.0 mm 0.00 in0.0 mm
02:13 PM 87.1°F30.6°C 39.8°F4.3°C 19% 4.3 mph WSW6.9 kmh WSW 8.0 mph12.9 kmh 30.24 in1024.0 mb 0.00 in0.0 mm 0.00 in0.0 mm 0.00 in0.0 mm
02:18 PM 87.2°F30.7°C 38.5°F3.6°C 18% 5.4 mph SW8.7 kmh SW 8.0 mph12.9 kmh 30.24 in1024.0 mb 0.00 in0.0 mm 0.00 in0.0 mm 0.00 in0.0 mm
02:23 PM 88.9°F31.6°C 41.2°F5.1°C 19% 4.8 mph SE7.7 kmh SE 7.2 mph11.6 kmh 30.21 in1023.0 mb 0.00 in0.0 mm 0.00 in0.0 mm 0.00 in0.0 mm
02:31 PM 84.2°F29.0°C -2.1°F-18.9°C 3% 6.0 mph NW9.7 kmh NW 7.6 mph12.2 kmh 30.21 in1023.0 mb 0.00 in0.0 mm 0.00 in0.0 mm 0.00 in0.0 mm
02:36 PM 87.1°F30.6°C 39.8°F4.3°C 19% 4.7 mph SW7.6 kmh SW 8.6 mph13.8 kmh 30.21 in1023.0 mb 0.00 in0.0 mm 0.00 in0.0 mm 0.00 in0.0 mm
02:41 PM 86.7°F30.4°C 35.0°F1.7°C 16% 3.9 mph WNW6.3 kmh WNW 8.6 mph13.8 kmh 30.21 in1023.0 mb 0.00 in0.0 mm 0.00 in0.0 mm 0.00 in0.0 mm
02:46 PM 87.1°F30.6°C 39.8°F4.3°C 19% 5.5 mph W8.9 kmh W 7.2 mph11.6 kmh 30.21 in1023.0 mb 0.00 in0.0 mm 0.00 in0.0 mm 0.00 in0.0 mm
02:51 PM 86.9°F30.5°C 40.9°F4.9°C 20% 3.9 mph SW6.3 kmh SW 7.2 mph11.6 kmh 30.21 in1023.0 mb 0.00 in0.0 mm 0.00 in0.0 mm 0.00 in0.0 mm
02:56 PM 88.5°F31.4°C 43.5°F6.4°C 21% 4.7 mph SW7.6 kmh SW 8.0 mph12.9 kmh 30.21 in1023.0 mb 0.00 in0.0 mm 0.00 in0.0 mm 0.00 in0.0 mm
03:01 PM 89.0°F31.7°C 41.3°F5.2°C 19% 6.1 mph SE9.8 kmh SE 8.0 mph12.9 kmh 30.21 in1023.0 mb 0.00 in0.0 mm 0.00 in0.0 mm 0.00 in0.0 mm
03:06 PM 88.0°F31.1°C 40.5°F4.7°C 19% 5.8 mph SW9.3 kmh SW 9.0 mph14.5 kmh 30.21 in1023.0 mb 0.00 in0.0 mm 0.00 in0.0 mm 0.00 in0.0 mm
03:11 PM 87.4°F30.8°C 40.0°F4.4°C 19% 3.9 mph W6.3 kmh W 9.0 mph14.5 kmh 30.21 in1023.0 mb 0.00 in0.0 mm 0.00 in0.0 mm 0.00 in0.0 mm
03:16 PM 87.6°F30.9°C 40.2°F4.6°C 19% 3.9 mph NE6.3 kmh NE 7.6 mph12.2 kmh 30.21 in1023.0 mb 0.00 in0.0 mm 0.00 in0.0 mm 0.00 in0.0 mm
03:22 PM 88.3°F31.3°C 43.3°F6.3°C 21% 4.8 mph W7.7 kmh W 7.2 mph11.6 kmh 30.18 in1022.0 mb 0.00 in0.0 mm 0.00 in0.0 mm 0.00 in0.0 mm
03:27 PM 88.9°F31.6°C 47.3°F8.5°C 24% 4.4 mph WSW7.1 kmh WSW 6.8 mph10.9 kmh 30.18 in1022.0 mb 0.00 in0.0 mm 0.00 in0.0 mm 0.00 in0.0 mm
03:32 PM 89.4°F31.9°C 45.4°F7.4°C 22% 4.8 mph SW7.7 kmh SW 6.8 mph10.9 kmh 30.18 in1022.0 mb 0.00 in0.0 mm 0.00 in0.0 mm 0.00 in0.0 mm
03:37 PM 88.1°F31.2°C 44.4°F6.9°C 22% 3.9 mph W6.3 kmh W 6.2 mph10.0 kmh 30.24 in1024.0 mb 0.00 in0.0 mm 0.00 in0.0 mm 0.00 in0.0 mm
03:42 PM 86.9°F30.5°C 43.4°F6.3°C 22% 4.2 mph NW6.8 kmh NW 6.2 mph10.0 kmh 30.24 in1024.0 mb 0.00 in0.0 mm 0.00 in0.0 mm 0.00 in0.0 mm
03:47 PM 88.3°F31.3°C 44.5°F6.9°C 22% 5.5 mph WSW8.9 kmh WSW 6.8 mph10.9 kmh 30.24 in1024.0 mb 0.00 in0.0 mm 0.00 in0.0 mm 0.00 in0.0 mm
03:52 PM 87.1°F30.6°C 43.5°F6.4°C 22% 4.4 mph WSW7.1 kmh WSW 8.0 mph12.9 kmh 30.21 in1023.0 mb 0.00 in0.0 mm 0.00 in0.0 mm 0.00 in0.0 mm
03:57 PM 88.9°F31.6°C 45.0°F7.2°C 22% 2.6 mph E4.2 kmh E 8.0 mph12.9 kmh 30.21 in1023.0 mb 0.00 in0.0 mm 0.00 in0.0 mm 0.00 in0.0 mm
04:02 PM 88.0°F31.1°C 43.1°F6.2°C 21% 6.6 mph WSW10.6 kmh WSW 8.0 mph12.9 kmh 30.21 in1023.0 mb 0.00 in0.0 mm 0.00 in0.0 mm 0.00 in0.0 mm
04:07 PM 88.3°F31.3°C 44.5°F6.9°C 22% 4.2 mph SSE6.8 kmh SSE 8.6 mph13.8 kmh 30.21 in1023.0 mb 0.00 in0.0 mm 0.00 in0.0 mm 0.00 in0.0 mm
04:12 PM 87.6°F30.9°C 45.1°F7.3°C 23% 4.2 mph SSW6.8 kmh SSW 8.6 mph13.8 kmh 30.21 in1023.0 mb 0.00 in0.0 mm 0.00 in0.0 mm 0.00 in0.0 mm
04:17 PM 87.8°F31.0°C 42.9°F6.1°C 21% 3.9 mph S6.3 kmh S 8.6 mph13.8 kmh 30.21 in1023.0 mb 0.00 in0.0 mm 0.00 in0.0 mm 0.00 in0.0 mm
04:22 PM 88.3°F31.3°C 43.3°F6.3°C 21% 3.2 mph W5.1 kmh W 7.2 mph11.6 kmh 30.21 in1023.0 mb 0.00 in0.0 mm 0.00 in0.0 mm 0.00 in0.0 mm
04:27 PM 87.8°F31.0°C 41.6°F5.3°C 20% 3.5 mph SSE5.6 kmh SSE 6.2 mph10.0 kmh 30.21 in1023.0 mb 0.00 in0.0 mm 0.00 in0.0 mm 0.00 in0.0 mm
04:34 PM 87.1°F30.6°C 41.1°F5.1°C 20% 5.6 mph SW9.0 kmh SW 7.6 mph12.2 kmh 30.21 in1023.0 mb 0.00 in0.0 mm 0.00 in0.0 mm 0.00 in0.0 mm
04:39 PM 86.7°F30.4°C 42.0°F5.6°C 21% 5.6 mph SE9.0 kmh SE 7.6 mph12.2 kmh 30.21 in1023.0 mb 0.00 in0.0 mm 0.00 in0.0 mm 0.00 in0.0 mm
04:46 PM 85.8°F29.9°C 42.4°F5.8°C 22% 4.9 mph WNW7.9 kmh WNW 8.0 mph12.9 kmh 30.21 in1023.0 mb 0.00 in0.0 mm 0.00 in0.0 mm 0.00 in0.0 mm
04:51 PM 84.5°F29.2°C 44.7°F7.1°C 25% 3.9 mph SW6.3 kmh SW 6.8 mph10.9 kmh 30.18 in1022.0 mb 0.00 in0.0 mm 0.00 in0.0 mm 0.00 in0.0 mm
04:57 PM 84.0°F28.9°C 44.2°F6.8°C 25% 4.0 mph S6.4 kmh S 8.0 mph12.9 kmh 30.18 in1022.0 mb 0.00 in0.0 mm 0.00 in0.0 mm 0.00 in0.0 mm
05:02 PM 83.6°F28.7°C 42.8°F6.0°C 24% 4.9 mph N7.9 kmh N 8.0 mph12.9 kmh 30.18 in1022.0 mb 0.00 in0.0 mm 0.00 in0.0 mm 0.00 in0.0 mm
05:08 PM 82.7°F28.2°C 45.1°F7.3°C 27% 5.5 mph SW8.9 kmh SW 8.6 mph13.8 kmh 30.21 in1023.0 mb 0.00 in0.0 mm 0.00 in0.0 mm 0.00 in0.0 mm
05:13 PM 82.6°F28.1°C 44.1°F6.7°C 26% 4.2 mph S6.8 kmh S 8.6 mph13.8 kmh 30.21 in1023.0 mb 0.00 in0.0 mm 0.00 in0.0 mm 0.00 in0.0 mm
05:18 PM 82.0°F27.8°C 44.5°F6.9°C 27% 4.2 mph S6.8 kmh S 7.6 mph12.2 kmh 30.21 in1023.0 mb 0.00 in0.0 mm 0.00 in0.0 mm 0.00 in0.0 mm
05:23 PM 81.8°F27.7°C 43.4°F6.3°C 26% 3.7 mph SW6.0 kmh SW 7.6 mph12.2 kmh 30.21 in1023.0 mb 0.00 in0.0 mm 0.00 in0.0 mm 0.00 in0.0 mm
05:30 PM 81.5°F27.5°C 45.1°F7.3°C 28% 4.1 mph SSW6.6 kmh SSW 7.6 mph12.2 kmh 30.21 in1023.0 mb 0.00 in0.0 mm 0.00 in0.0 mm 0.00 in0.0 mm
05:35 PM 81.5°F27.5°C 44.1°F6.7°C 27% 3.1 mph S5.0 kmh S 7.6 mph12.2 kmh 30.21 in1023.0 mb 0.00 in0.0 mm 0.00 in0.0 mm 0.00 in0.0 mm
05:41 PM 80.8°F27.1°C 44.5°F6.9°C 28% 4.3 mph W6.9 kmh W 5.4 mph8.7 kmh 30.21 in1023.0 mb 0.00 in0.0 mm 0.00 in0.0 mm 0.00 in0.0 mm
05:46 PM 80.6°F27.0°C 45.2°F7.3°C 29% 4.1 mph WSW6.6 kmh WSW 6.2 mph10.0 kmh 30.21 in1023.0 mb 0.00 in0.0 mm 0.00 in0.0 mm 0.00 in0.0 mm
05:51 PM 80.4°F26.9°C 45.0°F7.2°C 29% 4.0 mph WSW6.4 kmh WSW 6.8 mph10.9 kmh 30.21 in1023.0 mb 0.00 in0.0 mm 0.00 in0.0 mm 0.00 in0.0 mm
05:56 PM 80.2°F26.8°C 44.8°F7.1°C 29% 4.7 mph WSW7.6 kmh WSW 7.6 mph12.2 kmh 30.21 in1023.0 mb 0.00 in0.0 mm 0.00 in0.0 mm 0.00 in0.0 mm
06:01 PM 79.9°F26.6°C 45.5°F7.5°C 30% 4.1 mph S6.6 kmh S 7.6 mph12.2 kmh 30.21 in1023.0 mb 0.00 in0.0 mm 0.00 in0.0 mm 0.00 in0.0 mm
06:06 PM 79.7°F26.5°C 45.3°F7.4°C 30% 4.2 mph S6.8 kmh S 9.8 mph15.8 kmh 30.18 in1022.0 mb 0.00 in0.0 mm 0.00 in0.0 mm 0.00 in0.0 mm
06:11 PM 79.3°F26.3°C 45.0°F7.2°C 30% 4.3 mph S6.9 kmh S 9.8 mph15.8 kmh 30.18 in1022.0 mb 0.00 in0.0 mm 0.00 in0.0 mm 0.00 in0.0 mm
06:16 PM 79.1°F26.2°C 44.8°F7.1°C 30% 3.4 mph E5.5 kmh E 5.8 mph9.3 kmh 30.18 in1022.0 mb 0.00 in0.0 mm 0.00 in0.0 mm 0.00 in0.0 mm
06:21 PM 79.0°F26.1°C 44.7°F7.1°C 30% 2.9 mph SSE4.7 kmh SSE 7.2 mph11.6 kmh 30.18 in1022.0 mb 0.00 in0.0 mm 0.00 in0.0 mm 0.00 in0.0 mm
06:26 PM 78.8°F26.0°C 44.5°F6.9°C 30% 3.4 mph SSE5.5 kmh SSE 7.2 mph11.6 kmh 30.18 in1022.0 mb 0.00 in0.0 mm 0.00 in0.0 mm 0.00 in0.0 mm
06:31 PM 78.6°F25.9°C 44.4°F6.9°C 30% 3.5 mph SSW5.6 kmh SSW 6.8 mph10.9 kmh 30.18 in1022.0 mb 0.00 in0.0 mm 0.00 in0.0 mm 0.00 in0.0 mm
06:36 PM 78.1°F25.6°C 43.9°F6.6°C 30% 2.3 mph SSE3.7 kmh SSE 6.8 mph10.9 kmh 30.18 in1022.0 mb 0.00 in0.0 mm 0.00 in0.0 mm 0.00 in0.0 mm
06:42 PM 77.7°F25.4°C 43.6°F6.4°C 30% 4.5 mph S7.2 kmh S 6.8 mph10.9 kmh 30.18 in1022.0 mb 0.00 in0.0 mm 0.00 in0.0 mm 0.00 in0.0 mm
06:47 PM 77.5°F25.3°C 43.4°F6.3°C 30% 3.0 mph S4.8 kmh S 6.8 mph10.9 kmh 30.18 in1022.0 mb 0.00 in0.0 mm 0.00 in0.0 mm 0.00 in0.0 mm
06:52 PM 77.0°F25.0°C 43.0°F6.1°C 30% 2.4 mph SSE3.9 kmh SSE 5.4 mph8.7 kmh 30.18 in1022.0 mb 0.00 in0.0 mm 0.00 in0.0 mm 0.00 in0.0 mm
06:57 PM 76.6°F24.8°C 43.5°F6.4°C 31% 4.0 mph S6.4 kmh S 5.0 mph8.0 kmh 30.18 in1022.0 mb 0.00 in0.0 mm 0.00 in0.0 mm 0.00 in0.0 mm
07:02 PM 76.3°F24.6°C 43.2°F6.2°C 31% 2.3 mph S3.7 kmh S 5.0 mph8.0 kmh 30.18 in1022.0 mb 0.00 in0.0 mm 0.00 in0.0 mm 0.00 in0.0 mm
07:07 PM 75.7°F24.3°C 42.7°F5.9°C 31% 2.7 mph S4.3 kmh S 5.0 mph8.0 kmh 30.18 in1022.0 mb 0.00 in0.0 mm 0.00 in0.0 mm 0.00 in0.0 mm
07:12 PM 75.4°F24.1°C 42.4°F5.8°C 31% 2.2 mph SSE3.5 kmh SSE 4.0 mph6.4 kmh 30.18 in1022.0 mb 0.00 in0.0 mm 0.00 in0.0 mm 0.00 in0.0 mm
07:17 PM 75.0°F23.9°C 42.1°F5.6°C 31% Calm Calm 2.6 mph4.2 kmh 30.18 in1022.0 mb 0.00 in0.0 mm 0.00 in0.0 mm 0.00 in0.0 mm
07:23 PM 74.3°F23.5°C 41.5°F5.3°C 31% Calm Calm -- 30.18 in1022.0 mb 0.00 in0.0 mm 0.00 in0.0 mm 0.00 in0.0 mm
07:28 PM 73.9°F23.3°C 41.1°F5.1°C 31% Calm Calm -- 30.18 in1022.0 mb 0.00 in0.0 mm 0.00 in0.0 mm 0.00 in0.0 mm
07:33 PM 73.4°F23.0°C 40.7°F4.8°C 31% Calm Calm -- 30.18 in1022.0 mb 0.00 in0.0 mm 0.00 in0.0 mm 0.00 in0.0 mm
07:38 PM 72.8°F22.7°C 41.0°F5.0°C 32% Calm Calm -- 30.21 in1023.0 mb 0.00 in0.0 mm 0.00 in0.0 mm 0.00 in0.0 mm
07:43 PM 72.3°F22.4°C 40.6°F4.8°C 32% Calm Calm -- 30.21 in1023.0 mb 0.00 in0.0 mm 0.00 in0.0 mm 0.00 in0.0 mm
07:48 PM 71.9°F22.2°C 40.2°F4.6°C 32% Calm Calm -- 30.21 in1023.0 mb 0.00 in0.0 mm 0.00 in0.0 mm 0.00 in0.0 mm
07:53 PM 71.4°F21.9°C 39.8°F4.3°C 32% Calm Calm -- 30.21 in1023.0 mb 0.00 in0.0 mm 0.00 in0.0 mm 0.00 in0.0 mm
07:58 PM 70.9°F21.6°C 40.1°F4.5°C 33% Calm Calm -- 30.21 in1023.0 mb 0.00 in0.0 mm 0.00 in0.0 mm 0.00 in0.0 mm
08:03 PM 70.3°F21.3°C 39.6°F4.2°C 33% Calm Calm -- 30.21 in1023.0 mb 0.00 in0.0 mm 0.00 in0.0 mm 0.00 in0.0 mm
08:08 PM 69.6°F20.9°C 39.0°F3.9°C 33% Calm Calm -- 30.21 in1023.0 mb 0.00 in0.0 mm 0.00 in0.0 mm 0.00 in0.0 mm
08:13 PM 69.2°F20.7°C 39.4°F4.1°C 34% Calm Calm -- 30.21 in1023.0 mb 0.00 in0.0 mm 0.00 in0.0 mm 0.00 in0.0 mm
08:18 PM 68.9°F20.5°C 39.1°F3.9°C 34% Calm Calm -- 30.21 in1023.0 mb 0.00 in0.0 mm 0.00 in0.0 mm 0.00 in0.0 mm
08:25 PM 67.8°F19.9°C 39.7°F4.3°C 36% Calm Calm -- 30.24 in1024.0 mb 0.00 in0.0 mm 0.00 in0.0 mm 0.00 in0.0 mm
08:30 PM 67.1°F19.5°C 40.4°F4.7°C 38% Calm Calm -- 30.24 in1024.0 mb 0.00 in0.0 mm 0.00 in0.0 mm 0.00 in0.0 mm
08:35 PM 66.5°F19.2°C 40.6°F4.8°C 39% Calm Calm -- 30.24 in1024.0 mb 0.00 in0.0 mm 0.00 in0.0 mm 0.00 in0.0 mm
08:40 PM 66.0°F18.9°C 40.8°F4.9°C 40% Calm Calm -- 30.24 in1024.0 mb 0.00 in0.0 mm 0.00 in0.0 mm 0.00 in0.0 mm
08:46 PM 65.5°F18.6°C 41.0°F5.0°C 41% Calm Calm -- 30.24 in1024.0 mb 0.00 in0.0 mm 0.00 in0.0 mm 0.00 in0.0 mm
08:51 PM 64.9°F18.3°C 41.7°F5.4°C 43% Calm Calm -- 30.18 in1022.0 mb 0.00 in0.0 mm 0.00 in0.0 mm 0.00 in0.0 mm
08:57 PM 64.4°F18.0°C 41.3°F5.2°C 43% Calm Calm -- 30.18 in1022.0 mb 0.00 in0.0 mm 0.00 in0.0 mm 0.00 in0.0 mm
09:02 PM 64.0°F17.8°C 42.1°F5.6°C 45% Calm Calm -- 30.18 in1022.0 mb 0.00 in0.0 mm 0.00 in0.0 mm 0.00 in0.0 mm
09:07 PM 63.5°F17.5°C 42.8°F6.0°C 47% Calm Calm -- 30.21 in1023.0 mb 0.00 in0.0 mm 0.00 in0.0 mm 0.00 in0.0 mm
09:12 PM 62.9°F17.2°C 42.9°F6.1°C 48% Calm Calm -- 30.21 in1023.0 mb 0.00 in0.0 mm 0.00 in0.0 mm 0.00 in0.0 mm
09:17 PM 62.6°F17.0°C 43.1°F6.2°C 49% Calm Calm -- 30.21 in1023.0 mb 0.00 in0.0 mm 0.00 in0.0 mm 0.00 in0.0 mm
09:22 PM 62.4°F16.9°C 42.4°F5.8°C 48% Calm Calm -- 30.21 in1023.0 mb 0.00 in0.0 mm 0.00 in0.0 mm 0.00 in0.0 mm
09:27 PM 62.0°F16.7°C 42.6°F5.9°C 49% Calm Calm -- 30.21 in1023.0 mb 0.00 in0.0 mm 0.00 in0.0 mm 0.00 in0.0 mm
09:32 PM 61.7°F16.5°C 42.3°F5.7°C 49% Calm Calm -- 30.21 in1023.0 mb 0.00 in0.0 mm 0.00 in0.0 mm 0.00 in0.0 mm
09:39 PM 61.3°F16.3°C 41.9°F5.5°C 49% Calm Calm -- 30.21 in1023.0 mb 0.00 in0.0 mm 0.00 in0.0 mm 0.00 in0.0 mm
09:44 PM 61.0°F16.1°C 43.3°F6.3°C 52% Calm Calm -- 30.21 in1023.0 mb 0.00 in0.0 mm 0.00 in0.0 mm 0.00 in0.0 mm
09:49 PM 60.4°F15.8°C 44.2°F6.8°C 55% Calm Calm -- 30.21 in1023.0 mb 0.00 in0.0 mm 0.00 in0.0 mm 0.00 in0.0 mm
09:54 PM 60.2°F15.7°C 44.0°F6.7°C 55% Calm Calm -- 30.21 in1023.0 mb 0.00 in0.0 mm 0.00 in0.0 mm 0.00 in0.0 mm
10:01 PM 59.9°F15.5°C 43.8°F6.6°C 55% Calm Calm -- 30.21 in1023.0 mb 0.00 in0.0 mm 0.00 in0.0 mm 0.00 in0.0 mm
10:06 PM 59.8°F15.4°C 44.5°F6.9°C 57% Calm Calm -- 30.24 in1024.0 mb 0.00 in0.0 mm 0.00 in0.0 mm 0.00 in0.0 mm
10:11 PM 59.6°F15.3°C 43.9°F6.6°C 56% Calm Calm -- 30.24 in1024.0 mb 0.00 in0.0 mm 0.00 in0.0 mm 0.00 in0.0 mm
10:16 PM 59.3°F15.2°C 44.5°F6.9°C 58% Calm Calm -- 30.24 in1024.0 mb 0.00 in0.0 mm 0.00 in0.0 mm 0.00 in0.0 mm
10:21 PM 59.1°F15.1°C 45.2°F7.3°C 60% Calm Calm -- 30.24 in1024.0 mb 0.00 in0.0 mm 0.00 in0.0 mm 0.00 in0.0 mm
10:26 PM 58.9°F14.9°C 46.4°F8.0°C 63% Calm Calm -- 30.24 in1024.0 mb 0.00 in0.0 mm 0.00 in0.0 mm 0.00 in0.0 mm
10:31 PM 58.5°F14.7°C 46.8°F8.2°C 65% Calm Calm -- 30.24 in1024.0 mb 0.00 in0.0 mm 0.00 in0.0 mm 0.00 in0.0 mm
10:36 PM 58.4°F14.7°C 45.9°F7.7°C 63% Calm Calm -- 30.24 in1024.0 mb 0.00 in0.0 mm 0.00 in0.0 mm 0.00 in0.0 mm
10:41 PM 58.4°F14.7°C 46.7°F8.2°C 65% Calm Calm -- 30.24 in1024.0 mb 0.00 in0.0 mm 0.00 in0.0 mm 0.00 in0.0 mm
10:46 PM 58.2°F14.6°C 45.7°F7.6°C 63% Calm Calm -- 30.24 in1024.0 mb 0.00 in0.0 mm 0.00 in0.0 mm 0.00 in0.0 mm
10:52 PM 57.8°F14.3°C 46.1°F7.8°C 65% Calm Calm -- 30.24 in1024.0 mb 0.00 in0.0 mm 0.00 in0.0 mm 0.00 in0.0 mm
10:57 PM 57.6°F14.2°C 46.4°F8.0°C 66% Calm Calm -- 30.24 in1024.0 mb 0.00 in0.0 mm 0.00 in0.0 mm 0.00 in0.0 mm
11:03 PM 57.5°F14.2°C 45.9°F7.7°C 65% Calm Calm -- 30.24 in1024.0 mb 0.00 in0.0 mm 0.00 in0.0 mm 0.00 in0.0 mm
11:08 PM 57.5°F14.2°C 45.4°F7.4°C 64% 2.4 mph SSE3.9 kmh SSE 3.2 mph5.1 kmh 30.24 in1024.0 mb 0.00 in0.0 mm 0.00 in0.0 mm 0.00 in0.0 mm
11:14 PM 57.5°F14.2°C 45.9°F7.7°C 65% Calm Calm 3.2 mph5.1 kmh 30.24 in1024.0 mb 0.00 in0.0 mm 0.00 in0.0 mm 0.00 in0.0 mm
11:19 PM 57.1°F13.9°C 45.9°F7.7°C 66% Calm Calm -- 30.24 in1024.0 mb 0.00 in0.0 mm 0.00 in0.0 mm 0.00 in0.0 mm
11:24 PM 56.9°F13.8°C 45.3°F7.4°C 65% Calm Calm -- 30.24 in1024.0 mb 0.00 in0.0 mm 0.00 in0.0 mm 0.00 in0.0 mm
11:29 PM 56.7°F13.7°C 45.5°F7.5°C 66% Calm Calm -- 30.24 in1024.0 mb 0.00 in0.0 mm 0.00 in0.0 mm 0.00 in0.0 mm
11:34 PM 56.7°F13.7°C 45.9°F7.7°C 67% Calm Calm -- 30.24 in1024.0 mb 0.00 in0.0 mm 0.00 in0.0 mm 0.00 in0.0 mm
11:39 PM 56.4°F13.6°C 46.4°F8.0°C 69% Calm Calm -- 30.24 in1024.0 mb 0.00 in0.0 mm 0.00 in0.0 mm 0.00 in0.0 mm
11:44 PM 56.2°F13.4°C 46.9°F8.3°C 71% Calm Calm -- 30.24 in1024.0 mb 0.00 in0.0 mm 0.00 in0.0 mm 0.00 in0.0 mm
11:49 PM 56.2°F13.4°C 47.7°F8.7°C 73% Calm Calm -- 30.24 in1024.0 mb 0.00 in0.0 mm 0.00 in0.0 mm 0.00 in0.0 mm
11:54 PM 55.8°F13.2°C 46.9°F8.3°C 72% Calm Calm -- 30.24 in1024.0 mb 0.00 in0.0 mm 0.00 in0.0 mm 0.00 in0.0 mm
11:59 PM 55.8°F13.2°C 46.5°F8.1°C 71% Calm Calm -- 30.24 in1024.0 mb 0.00 in0.0 mm 0.00 in0.0 mm 0.00 in0.0 mm